sensor_id;sensor_type;location;lat;lon;timestamp;temperature;humidity
25328;DHT22;13279;51.300;12.394;2023-05-24T00:02:18;10.30;99.90
25328;DHT22;13279;51.300;12.394;2023-05-24T00:04:45;10.30;99.90
25328;DHT22;13279;51.300;12.394;2023-05-24T00:07:15;10.30;99.90
25328;DHT22;13279;51.300;12.394;2023-05-24T00:09:43;10.20;99.90
25328;DHT22;13279;51.300;12.394;2023-05-24T02:12:35;9.30;99.90
25328;DHT22;13279;51.300;12.394;2023-05-24T02:15:02;9.30;99.90
25328;DHT22;13279;51.300;12.394;2023-05-24T02:17:33;9.30;99.90
25328;DHT22;13279;51.300;12.394;2023-05-24T02:20:01;9.30;99.90
25328;DHT22;13279;51.300;12.394;2023-05-24T02:22:29;9.00;99.90
25328;DHT22;13279;51.300;12.394;2023-05-24T02:24:57;9.30;99.90
25328;DHT22;13279;51.300;12.394;2023-05-24T02:27:24;9.40;99.90
25328;DHT22;13279;51.300;12.394;2023-05-24T02:29:52;9.30;99.90
25328;DHT22;13279;51.300;12.394;2023-05-24T02:32:19;9.30;99.90
25328;DHT22;13279;51.300;12.394;2023-05-24T02:34:48;9.70;99.90
25328;DHT22;13279;51.300;12.394;2023-05-24T02:37:16;9.30;99.90
25328;DHT22;13279;51.300;12.394;2023-05-24T02:39:43;9.20;99.90
25328;DHT22;13279;51.300;12.394;2023-05-24T02:42:10;9.10;99.90
25328;DHT22;13279;51.300;12.394;2023-05-24T02:44:38;9.10;99.90
25328;DHT22;13279;51.300;12.394;2023-05-24T03:54:31;8.80;99.90
25328;DHT22;13279;51.300;12.394;2023-05-24T03:57:00;8.80;99.90
25328;DHT22;13279;51.300;12.394;2023-05-24T03:59:38;8.80;99.90
25328;DHT22;13279;51.300;12.394;2023-05-24T04:02:07;8.70;99.90
25328;DHT22;13279;51.300;12.394;2023-05-24T04:04:41;8.80;99.90
25328;DHT22;13279;51.300;12.394;2023-05-24T04:07:09;8.80;99.90
25328;DHT22;13279;51.300;12.394;2023-05-24T04:09:40;8.80;99.90
25328;DHT22;13279;51.300;12.394;2023-05-24T04:12:09;8.80;99.90
25328;DHT22;13279;51.300;12.394;2023-05-24T04:14:40;8.80;99.90
25328;DHT22;13279;51.300;12.394;2023-05-24T04:17:08;8.80;99.90
25328;DHT22;13279;51.300;12.394;2023-05-24T04:19:35;8.80;99.90
25328;DHT22;13279;51.300;12.394;2023-05-24T04:22:03;8.90;99.90
25328;DHT22;13279;51.300;12.394;2023-05-24T04:24:30;8.90;99.90
25328;DHT22;13279;51.300;12.394;2023-05-24T04:26:58;8.90;99.90
25328;DHT22;13279;51.300;12.394;2023-05-24T04:29:26;8.90;99.90
25328;DHT22;13279;51.300;12.394;2023-05-24T04:31:55;8.90;99.90
25328;DHT22;13279;51.300;12.394;2023-05-24T04:34:24;8.90;99.90
25328;DHT22;13279;51.300;12.394;2023-05-24T04:36:55;8.90;99.90
25328;DHT22;13279;51.300;12.394;2023-05-24T04:39:22;8.90;99.90
25328;DHT22;13279;51.300;12.394;2023-05-24T04:41:50;8.90;99.90
25328;DHT22;13279;51.300;12.394;2023-05-24T04:44:17;8.90;99.90
25328;DHT22;13279;51.300;12.394;2023-05-24T04:46:46;9.00;99.90
25328;DHT22;13279;51.300;12.394;2023-05-24T04:49:14;8.90;99.90
25328;DHT22;13279;51.300;12.394;2023-05-24T04:51:42;9.00;99.90
25328;DHT22;13279;51.300;12.394;2023-05-24T04:54:09;9.00;99.90
25328;DHT22;13279;51.300;12.394;2023-05-24T04:56:37;9.00;99.90
25328;DHT22;13279;51.300;12.394;2023-05-24T04:59:04;8.90;99.90
25328;DHT22;13279;51.300;12.394;2023-05-24T05:01:32;9.00;99.90
25328;DHT22;13279;51.300;12.394;2023-05-24T05:04:01;9.00;99.90
25328;DHT22;13279;51.300;12.394;2023-05-24T05:06:30;9.00;99.90
25328;DHT22;13279;51.300;12.394;2023-05-24T05:08:59;9.00;99.90
25328;DHT22;13279;51.300;12.394;2023-05-24T05:11:27;9.00;99.90
25328;DHT22;13279;51.300;12.394;2023-05-24T05:13:54;9.00;99.90
25328;DHT22;13279;51.300;12.394;2023-05-24T05:16:22;9.10;99.90
25328;DHT22;13279;51.300;12.394;2023-05-24T05:18:49;9.20;99.90
25328;DHT22;13279;51.300;12.394;2023-05-24T05:21:18;9.10;99.90
25328;DHT22;13279;51.300;12.394;2023-05-24T05:23:45;9.20;99.90
25328;DHT22;13279;51.300;12.394;2023-05-24T05:26:13;9.20;99.90
25328;DHT22;13279;51.300;12.394;2023-05-24T05:28:40;9.20;99.90
25328;DHT22;13279;51.300;12.394;2023-05-24T05:31:07;9.30;99.90
25328;DHT22;13279;51.300;12.394;2023-05-24T05:33:35;9.30;99.90
25328;DHT22;13279;51.300;12.394;2023-05-24T05:36:02;9.30;99.90
25328;DHT22;13279;51.300;12.394;2023-05-24T05:38:32;9.40;99.90
25328;DHT22;13279;51.300;12.394;2023-05-24T05:41:00;9.40;99.90
25328;DHT22;13279;51.300;12.394;2023-05-24T05:43:27;9.40;99.90
25328;DHT22;13279;51.300;12.394;2023-05-24T05:45:55;9.40;99.90
25328;DHT22;13279;51.300;12.394;2023-05-24T05:48:22;9.40;99.90
25328;DHT22;13279;51.300;12.394;2023-05-24T05:50:50;9.50;99.90
25328;DHT22;13279;51.300;12.394;2023-05-24T05:53:17;9.50;99.90
25328;DHT22;13279;51.300;12.394;2023-05-24T05:55:46;9.60;99.90
25328;DHT22;13279;51.300;12.394;2023-05-24T05:58:14;9.70;99.90
25328;DHT22;13279;51.300;12.394;2023-05-24T06:00:44;9.80;99.90
25328;DHT22;13279;51.300;12.394;2023-05-24T06:03:17;9.80;99.90
25328;DHT22;13279;51.300;12.394;2023-05-24T06:05:45;9.80;99.90
25328;DHT22;13279;51.300;12.394;2023-05-24T06:08:19;9.70;99.90
25328;DHT22;13279;51.300;12.394;2023-05-24T06:10:52;9.80;99.90
25328;DHT22;13279;51.300;12.394;2023-05-24T06:13:23;9.70;99.90
25328;DHT22;13279;51.300;12.394;2023-05-24T06:15:52;9.60;99.90
25328;DHT22;13279;51.300;12.394;2023-05-24T06:18:22;9.60;99.90
25328;DHT22;13279;51.300;12.394;2023-05-24T06:20:53;9.60;99.90
25328;DHT22;13279;51.300;12.394;2023-05-24T06:23:20;9.70;99.90
25328;DHT22;13279;51.300;12.394;2023-05-24T06:25:50;9.70;99.90
25328;DHT22;13279;51.300;12.394;2023-05-24T06:28:22;9.70;99.90
25328;DHT22;13279;51.300;12.394;2023-05-24T06:30:49;9.60;99.90
25328;DHT22;13279;51.300;12.394;2023-05-24T06:33:17;9.70;99.90
25328;DHT22;13279;51.300;12.394;2023-05-24T06:35:46;9.80;99.90
25328;DHT22;13279;51.300;12.394;2023-05-24T06:38:16;9.90;99.90
25328;DHT22;13279;51.300;12.394;2023-05-24T06:40:44;10.00;99.90
25328;DHT22;13279;51.300;12.394;2023-05-24T06:43:13;10.20;99.90
25328;DHT22;13279;51.300;12.394;2023-05-24T06:45:41;10.20;99.90
25328;DHT22;13279;51.300;12.394;2023-05-24T06:48:10;10.20;99.90
25328;DHT22;13279;51.300;12.394;2023-05-24T06:50:58;10.30;99.90
25328;DHT22;13279;51.300;12.394;2023-05-24T06:53:46;10.40;99.90
25328;DHT22;13279;51.300;12.394;2023-05-24T06:56:18;10.30;99.90
25328;DHT22;13279;51.300;12.394;2023-05-24T06:58:59;10.40;99.90
25328;DHT22;13279;51.300;12.394;2023-05-24T07:01:28;10.60;99.90
25328;DHT22;13279;51.300;12.394;2023-05-24T07:04:04;10.70;99.90
25328;DHT22;13279;51.300;12.394;2023-05-24T07:06:31;10.80;99.90
25328;DHT22;13279;51.300;12.394;2023-05-24T07:08:59;10.90;99.90
25328;DHT22;13279;51.300;12.394;2023-05-24T07:11:27;11.00;99.90
25328;DHT22;13279;51.300;12.394;2023-05-24T07:13:55;11.20;99.90
25328;DHT22;13279;51.300;12.394;2023-05-24T07:16:23;11.20;99.90
25328;DHT22;13279;51.300;12.394;2023-05-24T07:18:50;11.20;99.90
25328;DHT22;13279;51.300;12.394;2023-05-24T07:21:18;11.30;99.90
25328;DHT22;13279;51.300;12.394;2023-05-24T07:23:46;11.30;99.90
25328;DHT22;13279;51.300;12.394;2023-05-24T07:26:13;11.20;99.90
25328;DHT22;13279;51.300;12.394;2023-05-24T07:28:41;11.10;99.90
25328;DHT22;13279;51.300;12.394;2023-05-24T07:31:10;11.10;99.90
25328;DHT22;13279;51.300;12.394;2023-05-24T07:33:39;11.10;99.90
25328;DHT22;13279;51.300;12.394;2023-05-24T07:36:07;11.20;99.90
25328;DHT22;13279;51.300;12.394;2023-05-24T07:38:35;11.30;99.90
25328;DHT22;13279;51.300;12.394;2023-05-24T07:41:06;11.30;99.90
25328;DHT22;13279;51.300;12.394;2023-05-24T07:43:34;11.40;99.90
25328;DHT22;13279;51.300;12.394;2023-05-24T07:46:02;11.50;99.90
25328;DHT22;13279;51.300;12.394;2023-05-24T07:48:31;11.80;99.90
25328;DHT22;13279;51.300;12.394;2023-05-24T07:50:59;12.00;99.90
25328;DHT22;13279;51.300;12.394;2023-05-24T07:53:26;12.10;99.90
25328;DHT22;13279;51.300;12.394;2023-05-24T07:55:54;12.20;99.90
25328;DHT22;13279;51.300;12.394;2023-05-24T07:58:22;12.30;99.90
25328;DHT22;13279;51.300;12.394;2023-05-24T08:00:49;12.10;99.90
25328;DHT22;13279;51.300;12.394;2023-05-24T08:03:17;12.00;99.90
25328;DHT22;13279;51.300;12.394;2023-05-24T08:05:46;12.00;99.90
25328;DHT22;13279;51.300;12.394;2023-05-24T08:08:13;11.90;99.90
25328;DHT22;13279;51.300;12.394;2023-05-24T08:10:41;11.90;99.90
25328;DHT22;13279;51.300;12.394;2023-05-24T08:13:08;12.10;99.90
25328;DHT22;13279;51.300;12.394;2023-05-24T08:15:36;12.10;99.90
25328;DHT22;13279;51.300;12.394;2023-05-24T08:18:03;12.10;99.90
25328;DHT22;13279;51.300;12.394;2023-05-24T08:20:31;12.10;99.90
25328;DHT22;13279;51.300;12.394;2023-05-24T08:23:03;12.00;99.90
25328;DHT22;13279;51.300;12.394;2023-05-24T08:25:30;12.00;99.90
25328;DHT22;13279;51.300;12.394;2023-05-24T08:27:59;11.90;99.90
25328;DHT22;13279;51.300;12.394;2023-05-24T08:30:26;12.00;99.90
25328;DHT22;13279;51.300;12.394;2023-05-24T08:32:54;12.10;99.90
25328;DHT22;13279;51.300;12.394;2023-05-24T08:35:22;12.20;99.90
25328;DHT22;13279;51.300;12.394;2023-05-24T08:37:50;12.20;99.90
25328;DHT22;13279;51.300;12.394;2023-05-24T08:40:19;12.40;99.90
25328;DHT22;13279;51.300;12.394;2023-05-24T08:42:49;12.70;99.90
25328;DHT22;13279;51.300;12.394;2023-05-24T08:45:17;12.80;99.90
25328;DHT22;13279;51.300;12.394;2023-05-24T08:47:46;13.10;99.90
25328;DHT22;13279;51.300;12.394;2023-05-24T08:50:13;13.20;99.90
25328;DHT22;13279;51.300;12.394;2023-05-24T08:52:41;13.30;99.90
25328;DHT22;13279;51.300;12.394;2023-05-24T08:55:10;13.30;99.90
25328;DHT22;13279;51.300;12.394;2023-05-24T08:57:39;13.20;99.90
25328;DHT22;13279;51.300;12.394;2023-05-24T09:00:09;13.00;99.90
25328;DHT22;13279;51.300;12.394;2023-05-24T09:02:38;12.90;99.90
25328;DHT22;13279;51.300;12.394;2023-05-24T09:05:26;12.80;99.90
25328;DHT22;13279;51.300;12.394;2023-05-24T09:07:56;12.90;99.90
25328;DHT22;13279;51.300;12.394;2023-05-24T09:10:27;12.80;99.90
25328;DHT22;13279;51.300;12.394;2023-05-24T09:12:57;12.80;99.90
25328;DHT22;13279;51.300;12.394;2023-05-24T09:15:25;12.80;99.90
25328;DHT22;13279;51.300;12.394;2023-05-24T09:17:53;12.80;99.90
25328;DHT22;13279;51.300;12.394;2023-05-24T09:20:20;12.80;99.90
25328;DHT22;13279;51.300;12.394;2023-05-24T09:22:50;13.00;99.90
25328;DHT22;13279;51.300;12.394;2023-05-24T09:25:18;12.90;99.90
25328;DHT22;13279;51.300;12.394;2023-05-24T09:27:49;12.90;1.00
25328;DHT22;13279;51.300;12.394;2023-05-24T09:30:19;12.80;1.00
25328;DHT22;13279;51.300;12.394;2023-05-24T09:32:55;12.80;1.00
25328;DHT22;13279;51.300;12.394;2023-05-24T09:35:24;13.00;1.00
25328;DHT22;13279;51.300;12.394;2023-05-24T09:37:53;13.20;1.00
25328;DHT22;13279;51.300;12.394;2023-05-24T09:40:22;13.20;1.00
25328;DHT22;13279;51.300;12.394;2023-05-24T09:43:04;13.20;1.00
25328;DHT22;13279;51.300;12.394;2023-05-24T09:45:40;13.30;1.00
25328;DHT22;13279;51.300;12.394;2023-05-24T09:48:10;13.10;1.00
25328;DHT22;13279;51.300;12.394;2023-05-24T09:50:38;13.00;1.00
25328;DHT22;13279;51.300;12.394;2023-05-24T09:53:06;12.80;1.00
25328;DHT22;13279;51.300;12.394;2023-05-24T09:55:35;12.80;1.00
25328;DHT22;13279;51.300;12.394;2023-05-24T09:58:05;12.70;1.00
25328;DHT22;13279;51.300;12.394;2023-05-24T10:00:34;12.70;1.00
25328;DHT22;13279;51.300;12.394;2023-05-24T10:03:08;12.90;1.00
25328;DHT22;13279;51.300;12.394;2023-05-24T10:05:37;13.10;1.00
25328;DHT22;13279;51.300;12.394;2023-05-24T10:08:04;13.20;1.00
25328;DHT22;13279;51.300;12.394;2023-05-24T10:10:35;13.30;1.00
25328;DHT22;13279;51.300;12.394;2023-05-24T10:13:02;13.50;1.00
25328;DHT22;13279;51.300;12.394;2023-05-24T10:15:30;13.60;1.00
25328;DHT22;13279;51.300;12.394;2023-05-24T10:17:58;13.70;99.90
25328;DHT22;13279;51.300;12.394;2023-05-24T10:20:27;13.80;99.90
25328;DHT22;13279;51.300;12.394;2023-05-24T10:22:58;14.00;99.90
25328;DHT22;13279;51.300;12.394;2023-05-24T10:25:27;14.30;16.30
25328;DHT22;13279;51.300;12.394;2023-05-24T10:27:57;14.60;99.90
25328;DHT22;13279;51.300;12.394;2023-05-24T10:30:30;14.70;1.00
25328;DHT22;13279;51.300;12.394;2023-05-24T10:33:00;14.70;1.00
25328;DHT22;13279;51.300;12.394;2023-05-24T10:35:32;14.60;1.00
25328;DHT22;13279;51.300;12.394;2023-05-24T10:38:05;14.70;1.00
25328;DHT22;13279;51.300;12.394;2023-05-24T10:40:34;14.40;1.00
25328;DHT22;13279;51.300;12.394;2023-05-24T10:43:03;14.20;1.00
25328;DHT22;13279;51.300;12.394;2023-05-24T10:45:33;14.20;1.00
25328;DHT22;13279;51.300;12.394;2023-05-24T10:48:31;14.10;1.00
25328;DHT22;13279;51.300;12.394;2023-05-24T10:51:29;14.00;1.00
25328;DHT22;13279;51.300;12.394;2023-05-24T10:54:13;14.00;1.00
25328;DHT22;13279;51.300;12.394;2023-05-24T10:56:44;14.10;1.00
25328;DHT22;13279;51.300;12.394;2023-05-24T10:59:23;14.10;1.00
25328;DHT22;13279;51.300;12.394;2023-05-24T11:01:54;14.10;1.00
25328;DHT22;13279;51.300;12.394;2023-05-24T11:04:23;14.10;1.00
25328;DHT22;13279;51.300;12.394;2023-05-24T11:06:56;13.80;1.00
25328;DHT22;13279;51.300;12.394;2023-05-24T11:09:25;13.70;1.00
25328;DHT22;13279;51.300;12.394;2023-05-24T11:11:55;13.70;1.00
25328;DHT22;13279;51.300;12.394;2023-05-24T11:14:24;13.90;1.00
25328;DHT22;13279;51.300;12.394;2023-05-24T11:16:54;14.00;1.00
25328;DHT22;13279;51.300;12.394;2023-05-24T11:19:23;14.10;1.00
25328;DHT22;13279;51.300;12.394;2023-05-24T11:21:51;14.40;1.00
25328;DHT22;13279;51.300;12.394;2023-05-24T11:24:25;14.60;1.00
25328;DHT22;13279;51.300;12.394;2023-05-24T11:26:53;14.70;99.90
25328;DHT22;13279;51.300;12.394;2023-05-24T11:29:22;14.90;1.00
25328;DHT22;13279;51.300;12.394;2023-05-24T11:31:50;14.90;99.90
25328;DHT22;13279;51.300;12.394;2023-05-24T11:34:19;15.30;99.90
25328;DHT22;13279;51.300;12.394;2023-05-24T11:36:47;15.40;99.90
25328;DHT22;13279;51.300;12.394;2023-05-24T11:39:15;15.60;1.00
25328;DHT22;13279;51.300;12.394;2023-05-24T11:41:44;15.70;1.00
25328;DHT22;13279;51.300;12.394;2023-05-24T11:44:16;15.70;1.00
25328;DHT22;13279;51.300;12.394;2023-05-24T11:46:45;15.70;1.00
25328;DHT22;13279;51.300;12.394;2023-05-24T11:49:13;15.90;1.00
25328;DHT22;13279;51.300;12.394;2023-05-24T11:51:41;16.20;1.00
25328;DHT22;13279;51.300;12.394;2023-05-24T11:54:12;16.60;1.00
25328;DHT22;13279;51.300;12.394;2023-05-24T11:56:39;16.70;1.00
25328;DHT22;13279;51.300;12.394;2023-05-24T11:59:13;16.50;99.90
25328;DHT22;13279;51.300;12.394;2023-05-24T12:01:42;16.70;1.00
25328;DHT22;13279;51.300;12.394;2023-05-24T12:04:10;17.20;99.90
25328;DHT22;13279;51.300;12.394;2023-05-24T12:06:39;17.30;99.90
25328;DHT22;13279;51.300;12.394;2023-05-24T12:09:07;17.30;1.00
25328;DHT22;13279;51.300;12.394;2023-05-24T12:11:39;16.80;1.00
25328;DHT22;13279;51.300;12.394;2023-05-24T12:14:10;16.70;99.90
25328;DHT22;13279;51.300;12.394;2023-05-24T12:16:41;16.70;1.00
25328;DHT22;13279;51.300;12.394;2023-05-24T12:19:12;16.40;1.00
25328;DHT22;13279;51.300;12.394;2023-05-24T12:21:42;16.40;1.00
25328;DHT22;13279;51.300;12.394;2023-05-24T12:24:11;16.50;1.00
25328;DHT22;13279;51.300;12.394;2023-05-24T12:26:42;16.30;1.00
25328;DHT22;13279;51.300;12.394;2023-05-24T12:29:11;16.10;99.90
25328;DHT22;13279;51.300;12.394;2023-05-24T12:31:39;16.00;99.90
25328;DHT22;13279;51.300;12.394;2023-05-24T12:34:10;16.00;99.90
25328;DHT22;13279;51.300;12.394;2023-05-24T12:36:40;16.30;99.90
25328;DHT22;13279;51.300;12.394;2023-05-24T12:39:20;16.60;99.90
25328;DHT22;13279;51.300;12.394;2023-05-24T12:41:52;16.80;1.00
25328;DHT22;13279;51.300;12.394;2023-05-24T12:44:26;16.70;1.00
25328;DHT22;13279;51.300;12.394;2023-05-24T12:46:55;16.90;1.00
25328;DHT22;13279;51.300;12.394;2023-05-24T12:49:23;17.00;1.00
25328;DHT22;13279;51.300;12.394;2023-05-24T12:51:52;17.10;1.00
25328;DHT22;13279;51.300;12.394;2023-05-24T12:54:21;17.30;1.00
25328;DHT22;13279;51.300;12.394;2023-05-24T12:56:49;17.10;1.00
25328;DHT22;13279;51.300;12.394;2023-05-24T12:59:17;17.10;1.00
25328;DHT22;13279;51.300;12.394;2023-05-24T13:01:46;17.10;1.00
25328;DHT22;13279;51.300;12.394;2023-05-24T13:04:17;17.60;1.00
25328;DHT22;13279;51.300;12.394;2023-05-24T13:06:45;17.70;1.00
25328;DHT22;13279;51.300;12.394;2023-05-24T13:09:13;17.20;1.00
25328;DHT22;13279;51.300;12.394;2023-05-24T13:11:42;16.70;1.00
25328;DHT22;13279;51.300;12.394;2023-05-24T13:14:11;16.70;1.00
25328;DHT22;13279;51.300;12.394;2023-05-24T13:16:40;16.80;1.00
25328;DHT22;13279;51.300;12.394;2023-05-24T13:19:12;16.50;1.00
25328;DHT22;13279;51.300;12.394;2023-05-24T13:21:50;16.40;1.00
25328;DHT22;13279;51.300;12.394;2023-05-24T13:24:23;16.70;1.00
25328;DHT22;13279;51.300;12.394;2023-05-24T13:27:07;16.50;1.00
25328;DHT22;13279;51.300;12.394;2023-05-24T13:29:39;16.50;1.00
25328;DHT22;13279;51.300;12.394;2023-05-24T13:32:12;16.30;1.00
25328;DHT22;13279;51.300;12.394;2023-05-24T13:34:59;16.30;1.00
25328;DHT22;13279;51.300;12.394;2023-05-24T13:37:33;16.10;1.00
25328;DHT22;13279;51.300;12.394;2023-05-24T13:43:36;16.20;1.00
25328;DHT22;13279;51.300;12.394;2023-05-24T13:46:21;16.10;1.00
25328;DHT22;13279;51.300;12.394;2023-05-24T13:49:07;16.50;1.00
25328;DHT22;13279;51.300;12.394;2023-05-24T13:52:01;16.40;1.00
25328;DHT22;13279;51.300;12.394;2023-05-24T13:54:42;16.30;1.00
25328;DHT22;13279;51.300;12.394;2023-05-24T13:57:23;16.40;1.00
25328;DHT22;13279;51.300;12.394;2023-05-24T14:00:00;16.20;1.00
25328;DHT22;13279;51.300;12.394;2023-05-24T14:02:55;16.00;1.00
25328;DHT22;13279;51.300;12.394;2023-05-24T14:05:29;16.00;1.00
25328;DHT22;13279;51.300;12.394;2023-05-24T14:08:08;16.00;99.90
25328;DHT22;13279;51.300;12.394;2023-05-24T14:10:40;16.80;1.00
25328;DHT22;13279;51.300;12.394;2023-05-24T14:13:07;17.90;1.00
25328;DHT22;13279;51.300;12.394;2023-05-24T14:15:34;18.90;99.90
25328;DHT22;13279;51.300;12.394;2023-05-24T14:18:03;19.90;1.00
25328;DHT22;13279;51.300;12.394;2023-05-24T14:20:35;20.30;99.90
25328;DHT22;13279;51.300;12.394;2023-05-24T14:23:29;20.80;1.00
25328;DHT22;13279;51.300;12.394;2023-05-24T14:26:24;20.90;99.90
25328;DHT22;13279;51.300;12.394;2023-05-24T14:29:15;21.00;1.00
25328;DHT22;13279;51.300;12.394;2023-05-24T14:32:04;20.60;1.00
25328;DHT22;13279;51.300;12.394;2023-05-24T14:34:48;20.40;99.90
25328;DHT22;13279;51.300;12.394;2023-05-24T14:37:23;20.30;99.90
25328;DHT22;13279;51.300;12.394;2023-05-24T14:40:07;20.10;99.90
25328;DHT22;13279;51.300;12.394;2023-05-24T14:42:42;19.30;99.90
25328;DHT22;13279;51.300;12.394;2023-05-24T14:45:13;19.00;1.00
25328;DHT22;13279;51.300;12.394;2023-05-24T14:47:42;19.40;1.00
25328;DHT22;13279;51.300;12.394;2023-05-24T14:50:12;19.50;99.90
25328;DHT22;13279;51.300;12.394;2023-05-24T14:52:42;19.50;99.90
25328;DHT22;13279;51.300;12.394;2023-05-24T14:55:16;19.40;1.00
25328;DHT22;13279;51.300;12.394;2023-05-24T14:57:47;18.80;99.90
25328;DHT22;13279;51.300;12.394;2023-05-24T15:00:23;18.60;99.90
25328;DHT22;13279;51.300;12.394;2023-05-24T15:03:01;18.60;99.90
25328;DHT22;13279;51.300;12.394;2023-05-24T15:05:36;18.40;99.90
25328;DHT22;13279;51.300;12.394;2023-05-24T15:08:06;18.60;99.90
25328;DHT22;13279;51.300;12.394;2023-05-24T15:10:46;19.10;1.00
25328;DHT22;13279;51.300;12.394;2023-05-24T15:13:19;19.10;99.90
25328;DHT22;13279;51.300;12.394;2023-05-24T15:16:00;18.90;1.00
25328;DHT22;13279;51.300;12.394;2023-05-24T15:18:44;19.10;1.00
25328;DHT22;13279;51.300;12.394;2023-05-24T15:21:15;19.30;1.00
25328;DHT22;13279;51.300;12.394;2023-05-24T15:23:49;19.50;1.00
25328;DHT22;13279;51.300;12.394;2023-05-24T15:26:19;19.60;1.00
25328;DHT22;13279;51.300;12.394;2023-05-24T15:28:49;19.90;1.00
25328;DHT22;13279;51.300;12.394;2023-05-24T15:31:17;19.90;1.00
25328;DHT22;13279;51.300;12.394;2023-05-24T15:33:55;19.80;1.00
25328;DHT22;13279;51.300;12.394;2023-05-24T15:36:50;19.80;1.00
25328;DHT22;13279;51.300;12.394;2023-05-24T15:39:33;19.70;1.00
25328;DHT22;13279;51.300;12.394;2023-05-24T15:42:23;19.70;1.00
25328;DHT22;13279;51.300;12.394;2023-05-24T15:45:12;20.10;1.00
25328;DHT22;13279;51.300;12.394;2023-05-24T15:47:43;19.60;1.00
25328;DHT22;13279;51.300;12.394;2023-05-24T15:50:11;19.70;1.00
25328;DHT22;13279;51.300;12.394;2023-05-24T15:52:39;19.90;1.00
25328;DHT22;13279;51.300;12.394;2023-05-24T15:55:07;19.90;1.00
25328;DHT22;13279;51.300;12.394;2023-05-24T15:57:36;19.60;99.90
25328;DHT22;13279;51.300;12.394;2023-05-24T16:00:05;19.50;99.90
25328;DHT22;13279;51.300;12.394;2023-05-24T16:02:38;19.20;99.90
25328;DHT22;13279;51.300;12.394;2023-05-24T16:05:05;18.90;99.90
25328;DHT22;13279;51.300;12.394;2023-05-24T16:07:33;18.60;66.40
25328;DHT22;13279;51.300;12.394;2023-05-24T16:10:00;18.30;99.90
25328;DHT22;13279;51.300;12.394;2023-05-24T16:12:27;18.00;99.90
25328;DHT22;13279;51.300;12.394;2023-05-24T16:14:59;17.60;1.00
25328;DHT22;13279;51.300;12.394;2023-05-24T16:17:27;17.50;1.00
25328;DHT22;13279;51.300;12.394;2023-05-24T16:19:54;17.30;1.00
25328;DHT22;13279;51.300;12.394;2023-05-24T16:22:21;17.20;1.00
25328;DHT22;13279;51.300;12.394;2023-05-24T16:24:49;17.00;1.00
25328;DHT22;13279;51.300;12.394;2023-05-24T16:27:18;16.90;1.00
25328;DHT22;13279;51.300;12.394;2023-05-24T16:29:45;16.90;1.00
25328;DHT22;13279;51.300;12.394;2023-05-24T16:32:15;16.90;1.00
25328;DHT22;13279;51.300;12.394;2023-05-24T16:34:43;17.00;1.00
25328;DHT22;13279;51.300;12.394;2023-05-24T16:37:10;16.90;1.00
25328;DHT22;13279;51.300;12.394;2023-05-24T16:39:37;16.80;1.00
25328;DHT22;13279;51.300;12.394;2023-05-24T16:42:05;16.60;1.00
25328;DHT22;13279;51.300;12.394;2023-05-24T16:44:33;16.60;1.00
25328;DHT22;13279;51.300;12.394;2023-05-24T16:47:00;16.60;1.00
25328;DHT22;13279;51.300;12.394;2023-05-24T16:49:29;16.70;1.00
25328;DHT22;13279;51.300;12.394;2023-05-24T16:51:57;16.50;1.00
25328;DHT22;13279;51.300;12.394;2023-05-24T16:54:24;16.30;1.00
25328;DHT22;13279;51.300;12.394;2023-05-24T16:56:55;16.20;1.00
25328;DHT22;13279;51.300;12.394;2023-05-24T16:59:29;16.10;1.00
25328;DHT22;13279;51.300;12.394;2023-05-24T17:02:25;16.00;1.00
25328;DHT22;13279;51.300;12.394;2023-05-24T17:05:08;16.10;1.00
25328;DHT22;13279;51.300;12.394;2023-05-24T17:07:55;16.00;1.00
25328;DHT22;13279;51.300;12.394;2023-05-24T17:10:40;16.00;1.00
25328;DHT22;13279;51.300;12.394;2023-05-24T17:13:18;15.90;1.00
25328;DHT22;13279;51.300;12.394;2023-05-24T17:15:54;15.80;1.00
25328;DHT22;13279;51.300;12.394;2023-05-24T17:19:00;15.60;1.00
25328;DHT22;13279;51.300;12.394;2023-05-24T17:21:49;15.50;1.00
25328;DHT22;13279;51.300;12.394;2023-05-24T17:24:49;15.60;1.00
25328;DHT22;13279;51.300;12.394;2023-05-24T17:27:34;15.50;1.00
25328;DHT22;13279;51.300;12.394;2023-05-24T17:30:08;15.40;1.00
25328;DHT22;13279;51.300;12.394;2023-05-24T17:32:46;15.40;1.00
25328;DHT22;13279;51.300;12.394;2023-05-24T17:35:21;15.40;1.00
25328;DHT22;13279;51.300;12.394;2023-05-24T17:38:05;15.30;1.00
25328;DHT22;13279;51.300;12.394;2023-05-24T17:41:10;15.30;1.00
25328;DHT22;13279;51.300;12.394;2023-05-24T17:43:36;15.30;1.00
25328;DHT22;13279;51.300;12.394;2023-05-24T17:46:05;15.30;1.00
25328;DHT22;13279;51.300;12.394;2023-05-24T17:48:44;15.30;1.00
25328;DHT22;13279;51.300;12.394;2023-05-24T17:51:14;15.30;1.00
25328;DHT22;13279;51.300;12.394;2023-05-24T17:53:46;15.40;1.00
25328;DHT22;13279;51.300;12.394;2023-05-24T17:56:14;15.40;1.00
25328;DHT22;13279;51.300;12.394;2023-05-24T17:58:43;15.40;1.00
25328;DHT22;13279;51.300;12.394;2023-05-24T18:01:18;15.40;1.00
25328;DHT22;13279;51.300;12.394;2023-05-24T18:04:09;15.40;1.00
25328;DHT22;13279;51.300;12.394;2023-05-24T18:06:44;15.30;1.00
25328;DHT22;13279;51.300;12.394;2023-05-24T18:09:21;15.30;1.00
25328;DHT22;13279;51.300;12.394;2023-05-24T18:11:53;15.20;1.00
25328;DHT22;13279;51.300;12.394;2023-05-24T18:14:28;15.20;1.00
25328;DHT22;13279;51.300;12.394;2023-05-24T18:17:03;15.10;56.30
25328;DHT22;13279;51.300;12.394;2023-05-24T18:19:40;15.00;99.90
25328;DHT22;13279;51.300;12.394;2023-05-24T18:22:16;14.90;99.90
25328;DHT22;13279;51.300;12.394;2023-05-24T18:24:51;14.80;1.00
25328;DHT22;13279;51.300;12.394;2023-05-24T18:27:25;14.70;1.00
25328;DHT22;13279;51.300;12.394;2023-05-24T18:30:01;14.70;99.90
25328;DHT22;13279;51.300;12.394;2023-05-24T18:32:32;14.70;99.90
25328;DHT22;13279;51.300;12.394;2023-05-24T18:35:00;14.60;99.90
25328;DHT22;13279;51.300;12.394;2023-05-24T18:37:31;14.60;8.70
25328;DHT22;13279;51.300;12.394;2023-05-24T18:40:05;14.60;99.90
25328;DHT22;13279;51.300;12.394;2023-05-24T18:42:40;14.60;99.90
25328;DHT22;13279;51.300;12.394;2023-05-24T18:45:16;14.50;99.90
25328;DHT22;13279;51.300;12.394;2023-05-24T18:47:54;14.50;1.00
25328;DHT22;13279;51.300;12.394;2023-05-24T18:50:25;14.40;1.00
25328;DHT22;13279;51.300;12.394;2023-05-24T18:53:22;14.40;1.00
25328;DHT22;13279;51.300;12.394;2023-05-24T18:56:28;14.40;1.00
25328;DHT22;13279;51.300;12.394;2023-05-24T18:59:05;14.40;17.90
25328;DHT22;13279;51.300;12.394;2023-05-24T19:02:13;14.40;99.90
25328;DHT22;13279;51.300;12.394;2023-05-24T19:05:33;14.30;1.00
25328;DHT22;13279;51.300;12.394;2023-05-24T19:09:22;14.20;1.00